»·PEaware :: N701GT KGCN-KCRQ

N701GT :: KGCN-KCRQ

FLIGHT INFORMATION

Flight Status: Arrived
Operator: Privately registered:
United States
More flights under this callsign
Pilot: Anonymous 17564 (17564)
Aircraft: ECLIPSE 500
(EA50)
More flights by this aircraft type
Origin: KGCN Grand Canyon Natl Park
United States
Destination: KCRQ McClellan-Palomar
United States
More flights between these airports :: More routes between these airports
Route: PARKS4 PGS V208 JLI
File this flight plan on PilotEdge
Remarks:
Altitude:
(Current/Filed)
28,000ft
Speed:
(Current/Filed)
370kts
Departed: 01-Aug-18 07:04 PM
Arrived: 01-Aug-18 08:12 PM
Distance/Time
Traveled:
305nm/1:08
Distance/Time
To Go:
Arrived

Flight Plot

Page will automatically refresh every two minutes.


Map Options




Map Legend


Flown Route
Filed Route
Departure Airport
Arrival Airport
Navaid (VOR, NDB)
Fix

Horizontal Profiles

Position Reports

Time Latitude Longitude Heading Altitude Ground
Speed
01-Aug-18 18:56 35.961880 -112.134386 220 6604ft 0kts
01-Aug-18 18:57 35.961880 -112.134386 220 6604ft 0kts
01-Aug-18 18:58 35.961880 -112.134386 220 6604ft 0kts
01-Aug-18 18:59 35.961880 -112.134386 220 6604ft 0kts
01-Aug-18 19:00 35.961880 -112.134386 220 6604ft 0kts
01-Aug-18 19:01 35.961880 -112.134386 220 6604ft 0kts
01-Aug-18 19:02 35.961997 -112.134562 310 6604ft 0kts
01-Aug-18 19:03 35.961367 -112.135895 302 6604ft 5kts
01-Aug-18 19:04 35.961454 -112.136193 260 6604ft 4kts
01-Aug-18 19:05 35.959360 -112.139525 218 6604ft 56kts
01-Aug-18 19:06 35.933760 -112.165098 220 6919ft 172kts
01-Aug-18 19:07 35.911791 -112.211955 283 8910ft 173kts
01-Aug-18 19:08 35.925264 -112.271450 271 10004ft 208kts
01-Aug-18 19:09 35.908454 -112.350673 257 10001ft 263kts
01-Aug-18 19:10 35.891789 -112.437252 254 9999ft 257kts
01-Aug-18 19:11 35.872665 -112.518530 255 10792ft 219kts
01-Aug-18 19:12 35.857190 -112.583758 257 12826ft 188kts
01-Aug-18 19:13 35.842839 -112.644433 257 14309ft 190kts
01-Aug-18 19:14 35.827599 -112.708526 256 16081ft 194kts
01-Aug-18 19:15 35.812204 -112.773021 256 17698ft 199kts
01-Aug-18 19:16 35.799133 -112.827716 256 18975ft 202kts
01-Aug-18 19:17 35.780391 -112.905506 250 20661ft 206kts
01-Aug-18 19:18 35.742573 -112.960156 231 22008ft 212kts
01-Aug-18 19:19 35.710311 -113.006153 231 23131ft 214kts
01-Aug-18 19:20 35.665040 -113.071668 231 24625ft 219kts
01-Aug-18 19:21 35.632051 -113.119682 231 25601ft 223kts
01-Aug-18 19:22 35.591965 -113.178135 232 26683ft 227kts
01-Aug-18 19:23 35.550768 -113.238198 232 27686ft 232kts
01-Aug-18 19:24 35.507403 -113.301387 231 28049ft 263kts
01-Aug-18 19:25 35.457116 -113.374487 231 28046ft 301kts
01-Aug-18 19:26 35.400388 -113.456661 231 28045ft 328kts
01-Aug-18 19:27 35.339696 -113.544400 231 28044ft 346kts
01-Aug-18 19:28 35.276191 -113.636026 231 28043ft 358kts
01-Aug-18 19:29 35.212009 -113.728386 230 28046ft 366kts
01-Aug-18 19:30 35.145854 -113.823344 230 28046ft 371kts
01-Aug-18 19:31 35.078892 -113.919186 230 28045ft 371kts
01-Aug-18 19:32 35.011832 -114.014946 230 28040ft 372kts
01-Aug-18 19:33 34.944495 -114.110838 229 27948ft 374kts
01-Aug-18 19:34 34.876633 -114.207154 229 27861ft 377kts
01-Aug-18 19:35 34.811883 -114.298793 229 27816ft 377kts
01-Aug-18 19:36 34.743486 -114.395412 229 27816ft 377kts
01-Aug-18 19:37 34.675464 -114.491198 229 27816ft 377kts
01-Aug-18 19:38 34.606900 -114.587466 229 27816ft 377kts
01-Aug-18 19:39 34.538549 -114.683068 229 27817ft 378kts
01-Aug-18 19:40 34.474981 -114.771939 228 27817ft 378kts
01-Aug-18 19:41 34.417677 -114.851783 228 27817ft 378kts
01-Aug-18 19:42 34.348686 -114.947658 228 27816ft 378kts
01-Aug-18 19:43 34.279836 -115.043084 228 27816ft 378kts
01-Aug-18 19:44 34.210832 -115.138497 228 27813ft 378kts
01-Aug-18 19:45 34.145580 -115.228448 228 27817ft 378kts
01-Aug-18 19:46 34.076337 -115.323630 228 27881ft 378kts
01-Aug-18 19:47 34.006971 -115.418742 228 27875ft 378kts
01-Aug-18 19:48 33.937567 -115.513655 228 27789ft 378kts
01-Aug-18 19:49 33.871286 -115.604057 228 27753ft 368kts
01-Aug-18 19:50 33.812191 -115.684459 227 27754ft 367kts
01-Aug-18 19:51 33.751167 -115.767303 227 27753ft 368kts
01-Aug-18 19:52 33.683619 -115.858770 227 26903ft 365kts
01-Aug-18 19:53 33.618177 -115.947171 227 25020ft 355kts
01-Aug-18 19:54 33.554043 -116.033583 227 23133ft 346kts
01-Aug-18 19:55 33.491077 -116.118224 227 21235ft 338kts
01-Aug-18 19:56 33.429907 -116.200260 227 19347ft 330kts
01-Aug-18 19:57 33.369553 -116.280909 227 17439ft 321kts
01-Aug-18 19:58 33.310792 -116.359329 227 15536ft 314kts
01-Aug-18 19:59 33.254677 -116.434095 227 13874ft 277kts
01-Aug-18 20:00 33.209936 -116.493625 227 13943ft 239kts
01-Aug-18 20:01 33.164655 -116.553804 227 14004ft 247kts
01-Aug-18 20:02 33.141792 -116.631336 266 13966ft 266kts
01-Aug-18 20:03 33.139812 -116.719049 271 11873ft 262kts
01-Aug-18 20:04 33.142797 -116.803562 271 9779ft 253kts
01-Aug-18 20:05 33.145848 -116.885340 271 7697ft 247kts
01-Aug-18 20:06 33.148721 -116.965541 271 5607ft 241kts
01-Aug-18 20:07 33.151102 -117.039905 271 4019ft 189kts
01-Aug-18 20:08 33.153288 -117.097412 271 4003ft 167kts
01-Aug-18 20:09 33.149716 -117.151685 256 3515ft 159kts
01-Aug-18 20:10 33.141075 -117.198560 257 2314ft 149kts
01-Aug-18 20:11 33.134058 -117.242496 256 1119ft 122kts
01-Aug-18 20:12 33.128611 -117.277692 258 303ft 48kts
01-Aug-18 20:13 33.127663 -117.279537 164 303ft 3kts
01-Aug-18 20:14 33.128048 -117.275475 110 303ft 17kts

Navigation Log

Ident Type
Flight plan parsing failed, navigation log unavailable